sensor_id;sensor_type;location;lat;lon;timestamp;P1;durP1;ratioP1;P2;durP2;ratioP2
5412;SDS011;2729;50.056;8.678;2023-02-18T00:02:14;2.20;;;2.10;;
5412;SDS011;2729;50.056;8.678;2023-02-18T00:04:40;2.50;;;2.30;;
5412;SDS011;2729;50.056;8.678;2023-02-18T00:07:06;2.70;;;2.50;;
5412;SDS011;2729;50.056;8.678;2023-02-18T00:09:32;3.47;;;3.00;;
5412;SDS011;2729;50.056;8.678;2023-02-18T00:11:58;3.87;;;3.00;;
5412;SDS011;2729;50.056;8.678;2023-02-18T00:14:24;3.10;;;2.80;;
5412;SDS011;2729;50.056;8.678;2023-02-18T00:16:50;4.07;;;3.40;;
5412;SDS011;2729;50.056;8.678;2023-02-18T00:19:16;3.20;;;3.00;;
5412;SDS011;2729;50.056;8.678;2023-02-18T00:21:43;3.30;;;3.00;;
5412;SDS011;2729;50.056;8.678;2023-02-18T00:24:10;2.70;;;2.50;;
5412;SDS011;2729;50.056;8.678;2023-02-18T00:26:40;3.83;;;2.77;;
5412;SDS011;2729;50.056;8.678;2023-02-18T00:29:06;3.17;;;2.87;;
5412;SDS011;2729;50.056;8.678;2023-02-18T00:31:33;3.00;;;2.80;;
5412;SDS011;2729;50.056;8.678;2023-02-18T00:34:00;4.03;;;2.83;;
5412;SDS011;2729;50.056;8.678;2023-02-18T00:36:28;3.17;;;2.90;;
5412;SDS011;2729;50.056;8.678;2023-02-18T00:38:55;3.30;;;3.00;;
5412;SDS011;2729;50.056;8.678;2023-02-18T00:41:24;4.17;;;3.80;;
5412;SDS011;2729;50.056;8.678;2023-02-18T00:43:51;3.37;;;2.90;;
5412;SDS011;2729;50.056;8.678;2023-02-18T00:46:18;3.10;;;2.90;;
5412;SDS011;2729;50.056;8.678;2023-02-18T00:48:45;5.00;;;3.13;;
5412;SDS011;2729;50.056;8.678;2023-02-18T00:51:11;3.10;;;2.80;;
5412;SDS011;2729;50.056;8.678;2023-02-18T00:53:37;3.30;;;2.80;;
5412;SDS011;2729;50.056;8.678;2023-02-18T00:56:04;3.23;;;2.97;;
5412;SDS011;2729;50.056;8.678;2023-02-18T00:58:31;3.47;;;2.63;;
5412;SDS011;2729;50.056;8.678;2023-02-18T01:00:58;4.57;;;2.67;;
5412;SDS011;2729;50.056;8.678;2023-02-18T01:03:24;2.97;;;2.70;;
5412;SDS011;2729;50.056;8.678;2023-02-18T01:05:50;3.27;;;2.97;;
5412;SDS011;2729;50.056;8.678;2023-02-18T01:08:17;3.33;;;3.00;;
5412;SDS011;2729;50.056;8.678;2023-02-18T01:10:45;3.20;;;2.90;;
5412;SDS011;2729;50.056;8.678;2023-02-18T01:13:13;2.73;;;2.50;;
5412;SDS011;2729;50.056;8.678;2023-02-18T01:15:39;2.20;;;2.10;;
5412;SDS011;2729;50.056;8.678;2023-02-18T01:18:06;2.20;;;2.00;;
5412;SDS011;2729;50.056;8.678;2023-02-18T01:20:36;2.20;;;2.03;;
5412;SDS011;2729;50.056;8.678;2023-02-18T01:23:04;2.10;;;2.00;;
5412;SDS011;2729;50.056;8.678;2023-02-18T01:25:30;2.40;;;2.20;;
5412;SDS011;2729;50.056;8.678;2023-02-18T01:27:57;2.43;;;2.23;;
5412;SDS011;2729;50.056;8.678;2023-02-18T01:30:23;2.10;;;2.00;;
5412;SDS011;2729;50.056;8.678;2023-02-18T01:32:49;3.13;;;2.40;;
5412;SDS011;2729;50.056;8.678;2023-02-18T01:35:16;2.10;;;2.00;;
5412;SDS011;2729;50.056;8.678;2023-02-18T01:37:44;3.70;;;2.63;;
5412;SDS011;2729;50.056;8.678;2023-02-18T01:40:18;2.20;;;2.10;;
5412;SDS011;2729;50.056;8.678;2023-02-18T01:42:46;1.90;;;1.80;;
5412;SDS011;2729;50.056;8.678;2023-02-18T01:50:49;2.13;;;2.03;;
5412;SDS011;2729;50.056;8.678;2023-02-18T01:53:20;1.53;;;1.43;;
5412;SDS011;2729;50.056;8.678;2023-02-18T01:55:51;1.20;;;1.20;;
5412;SDS011;2729;50.056;8.678;2023-02-18T01:58:17;1.97;;;1.40;;
5412;SDS011;2729;50.056;8.678;2023-02-18T02:00:44;1.40;;;1.30;;
5412;SDS011;2729;50.056;8.678;2023-02-18T02:03:10;1.80;;;1.70;;
5412;SDS011;2729;50.056;8.678;2023-02-18T02:05:36;1.57;;;1.20;;
5412;SDS011;2729;50.056;8.678;2023-02-18T02:08:02;1.27;;;1.17;;
5412;SDS011;2729;50.056;8.678;2023-02-18T02:14:02;1.40;;;1.30;;
5412;SDS011;2729;50.056;8.678;2023-02-18T02:16:39;0.87;;;0.87;;
5412;SDS011;2729;50.056;8.678;2023-02-18T02:28:35;1.20;;;1.20;;
5412;SDS011;2729;50.056;8.678;2023-02-18T02:31:21;0.97;;;0.83;;
5412;SDS011;2729;50.056;8.678;2023-02-18T02:34:23;1.30;;;1.20;;
5412;SDS011;2729;50.056;8.678;2023-02-18T02:45:20;1.93;;;0.90;;
5412;SDS011;2729;50.056;8.678;2023-02-18T02:48:04;0.67;;;0.67;;
5412;SDS011;2729;50.056;8.678;2023-02-18T02:50:44;0.63;;;0.63;;
5412;SDS011;2729;50.056;8.678;2023-02-18T02:53:16;0.63;;;0.63;;
5412;SDS011;2729;50.056;8.678;2023-02-18T02:55:47;0.80;;;0.80;;
5412;SDS011;2729;50.056;8.678;2023-02-18T02:58:16;0.60;;;0.60;;
5412;SDS011;2729;50.056;8.678;2023-02-18T03:04:08;0.77;;;0.77;;
5412;SDS011;2729;50.056;8.678;2023-02-18T03:09:04;2.10;;;0.80;;
5412;SDS011;2729;50.056;8.678;2023-02-18T03:11:36;1.03;;;0.77;;
5412;SDS011;2729;50.056;8.678;2023-02-18T03:14:13;0.80;;;0.80;;
5412;SDS011;2729;50.056;8.678;2023-02-18T03:17:02;0.70;;;0.70;;
5412;SDS011;2729;50.056;8.678;2023-02-18T03:19:52;0.80;;;0.80;;
5412;SDS011;2729;50.056;8.678;2023-02-18T03:22:22;0.70;;;0.70;;
5412;SDS011;2729;50.056;8.678;2023-02-18T03:24:55;0.77;;;0.77;;
5412;SDS011;2729;50.056;8.678;2023-02-18T03:27:30;0.87;;;0.87;;
5412;SDS011;2729;50.056;8.678;2023-02-18T03:29:59;0.73;;;0.73;;
5412;SDS011;2729;50.056;8.678;2023-02-18T03:32:29;0.70;;;0.70;;
5412;SDS011;2729;50.056;8.678;2023-02-18T03:34:59;1.10;;;0.60;;
5412;SDS011;2729;50.056;8.678;2023-02-18T03:37:31;1.00;;;0.90;;
5412;SDS011;2729;50.056;8.678;2023-02-18T03:40:03;0.80;;;0.80;;
5412;SDS011;2729;50.056;8.678;2023-02-18T03:42:31;1.00;;;0.90;;
5412;SDS011;2729;50.056;8.678;2023-02-18T03:44:57;0.80;;;0.80;;
5412;SDS011;2729;50.056;8.678;2023-02-18T03:47:23;0.73;;;0.73;;
5412;SDS011;2729;50.056;8.678;2023-02-18T03:49:49;1.03;;;1.03;;
5412;SDS011;2729;50.056;8.678;2023-02-18T03:52:15;0.97;;;0.97;;
5412;SDS011;2729;50.056;8.678;2023-02-18T03:54:41;0.80;;;0.80;;
5412;SDS011;2729;50.056;8.678;2023-02-18T03:57:07;1.17;;;1.07;;
5412;SDS011;2729;50.056;8.678;2023-02-18T03:59:33;1.40;;;1.10;;
5412;SDS011;2729;50.056;8.678;2023-02-18T04:01:59;2.33;;;1.07;;
5412;SDS011;2729;50.056;8.678;2023-02-18T04:04:25;1.27;;;1.13;;
5412;SDS011;2729;50.056;8.678;2023-02-18T04:06:52;0.87;;;0.87;;
5412;SDS011;2729;50.056;8.678;2023-02-18T04:09:18;0.93;;;0.90;;
5412;SDS011;2729;50.056;8.678;2023-02-18T04:11:44;1.30;;;1.20;;
5412;SDS011;2729;50.056;8.678;2023-02-18T04:14:12;1.00;;;1.00;;
5412;SDS011;2729;50.056;8.678;2023-02-18T04:16:39;0.93;;;0.87;;
5412;SDS011;2729;50.056;8.678;2023-02-18T04:19:06;0.80;;;0.80;;
5412;SDS011;2729;50.056;8.678;2023-02-18T04:21:32;0.73;;;0.73;;
5412;SDS011;2729;50.056;8.678;2023-02-18T04:23:59;1.07;;;1.07;;
5412;SDS011;2729;50.056;8.678;2023-02-18T04:26:25;1.07;;;1.07;;
5412;SDS011;2729;50.056;8.678;2023-02-18T04:28:51;0.70;;;0.70;;
5412;SDS011;2729;50.056;8.678;2023-02-18T04:31:17;0.80;;;0.80;;
5412;SDS011;2729;50.056;8.678;2023-02-18T04:33:43;0.80;;;0.80;;
5412;SDS011;2729;50.056;8.678;2023-02-18T04:36:09;0.90;;;0.90;;
5412;SDS011;2729;50.056;8.678;2023-02-18T04:38:35;1.33;;;0.97;;
5412;SDS011;2729;50.056;8.678;2023-02-18T04:41:01;1.73;;;1.63;;
5412;SDS011;2729;50.056;8.678;2023-02-18T04:43:27;1.37;;;1.13;;
5412;SDS011;2729;50.056;8.678;2023-02-18T04:45:53;0.97;;;0.97;;
5412;SDS011;2729;50.056;8.678;2023-02-18T04:48:19;1.03;;;1.03;;
5412;SDS011;2729;50.056;8.678;2023-02-18T04:50:45;1.40;;;1.30;;
5412;SDS011;2729;50.056;8.678;2023-02-18T04:53:11;0.87;;;0.87;;
5412;SDS011;2729;50.056;8.678;2023-02-18T04:55:37;5.13;;;1.13;;
5412;SDS011;2729;50.056;8.678;2023-02-18T04:58:03;1.00;;;1.00;;
5412;SDS011;2729;50.056;8.678;2023-02-18T05:00:29;1.20;;;1.20;;
5412;SDS011;2729;50.056;8.678;2023-02-18T05:02:54;1.47;;;1.37;;
5412;SDS011;2729;50.056;8.678;2023-02-18T05:05:20;1.10;;;1.10;;
5412;SDS011;2729;50.056;8.678;2023-02-18T05:07:46;1.47;;;1.37;;
5412;SDS011;2729;50.056;8.678;2023-02-18T05:10:14;1.30;;;1.20;;
5412;SDS011;2729;50.056;8.678;2023-02-18T05:12:41;1.30;;;1.20;;
5412;SDS011;2729;50.056;8.678;2023-02-18T05:15:07;1.30;;;1.30;;
5412;SDS011;2729;50.056;8.678;2023-02-18T05:17:33;1.40;;;1.40;;
5412;SDS011;2729;50.056;8.678;2023-02-18T05:19:59;1.33;;;1.23;;
5412;SDS011;2729;50.056;8.678;2023-02-18T05:22:25;1.30;;;1.20;;
5412;SDS011;2729;50.056;8.678;2023-02-18T05:24:51;1.00;;;1.00;;
5412;SDS011;2729;50.056;8.678;2023-02-18T05:27:17;1.50;;;1.10;;
5412;SDS011;2729;50.056;8.678;2023-02-18T05:29:43;0.90;;;0.90;;
5412;SDS011;2729;50.056;8.678;2023-02-18T05:32:09;1.10;;;1.03;;
5412;SDS011;2729;50.056;8.678;2023-02-18T05:34:35;1.00;;;1.00;;
5412;SDS011;2729;50.056;8.678;2023-02-18T05:37:01;0.80;;;0.80;;
5412;SDS011;2729;50.056;8.678;2023-02-18T05:39:27;1.13;;;1.03;;
5412;SDS011;2729;50.056;8.678;2023-02-18T05:41:53;1.53;;;1.30;;
5412;SDS011;2729;50.056;8.678;2023-02-18T05:44:19;1.10;;;1.10;;
5412;SDS011;2729;50.056;8.678;2023-02-18T05:46:58;1.10;;;1.10;;
5412;SDS011;2729;50.056;8.678;2023-02-18T05:49:26;1.10;;;1.00;;
5412;SDS011;2729;50.056;8.678;2023-02-18T05:51:53;1.20;;;1.20;;
5412;SDS011;2729;50.056;8.678;2023-02-18T05:54:19;1.20;;;1.20;;
5412;SDS011;2729;50.056;8.678;2023-02-18T05:56:45;1.30;;;1.30;;
5412;SDS011;2729;50.056;8.678;2023-02-18T05:59:11;1.97;;;0.80;;
5412;SDS011;2729;50.056;8.678;2023-02-18T06:01:37;0.90;;;0.90;;
5412;SDS011;2729;50.056;8.678;2023-02-18T06:04:04;1.20;;;1.10;;
5412;SDS011;2729;50.056;8.678;2023-02-18T06:06:29;1.10;;;1.10;;
5412;SDS011;2729;50.056;8.678;2023-02-18T06:08:55;5.20;;;1.40;;
5412;SDS011;2729;50.056;8.678;2023-02-18T06:11:21;1.23;;;1.23;;
5412;SDS011;2729;50.056;8.678;2023-02-18T06:13:47;1.93;;;1.30;;
5412;SDS011;2729;50.056;8.678;2023-02-18T06:16:13;5.33;;;1.50;;
5412;SDS011;2729;50.056;8.678;2023-02-18T06:18:39;1.50;;;1.33;;
5412;SDS011;2729;50.056;8.678;2023-02-18T06:21:05;1.53;;;1.47;;
5412;SDS011;2729;50.056;8.678;2023-02-18T06:23:31;1.30;;;1.30;;
5412;SDS011;2729;50.056;8.678;2023-02-18T06:25:57;1.50;;;1.40;;
5412;SDS011;2729;50.056;8.678;2023-02-18T06:28:23;1.27;;;1.23;;
5412;SDS011;2729;50.056;8.678;2023-02-18T06:30:49;2.87;;;1.13;;
5412;SDS011;2729;50.056;8.678;2023-02-18T06:33:15;1.40;;;1.30;;
5412;SDS011;2729;50.056;8.678;2023-02-18T06:35:41;1.63;;;1.53;;
5412;SDS011;2729;50.056;8.678;2023-02-18T06:38:07;1.17;;;1.07;;
5412;SDS011;2729;50.056;8.678;2023-02-18T06:40:33;1.47;;;1.47;;
5412;SDS011;2729;50.056;8.678;2023-02-18T06:42:59;1.93;;;1.40;;
5412;SDS011;2729;50.056;8.678;2023-02-18T06:45:25;1.70;;;1.60;;
5412;SDS011;2729;50.056;8.678;2023-02-18T06:47:51;1.90;;;1.70;;
5412;SDS011;2729;50.056;8.678;2023-02-18T06:50:17;1.87;;;1.77;;
5412;SDS011;2729;50.056;8.678;2023-02-18T06:52:44;1.93;;;1.53;;
5412;SDS011;2729;50.056;8.678;2023-02-18T06:55:10;2.50;;;1.63;;
5412;SDS011;2729;50.056;8.678;2023-02-18T06:57:36;1.40;;;1.37;;
5412;SDS011;2729;50.056;8.678;2023-02-18T07:00:03;2.20;;;1.67;;
5412;SDS011;2729;50.056;8.678;2023-02-18T07:02:30;1.63;;;1.53;;
5412;SDS011;2729;50.056;8.678;2023-02-18T07:04:56;1.60;;;1.50;;
5412;SDS011;2729;50.056;8.678;2023-02-18T07:07:22;1.83;;;1.73;;
5412;SDS011;2729;50.056;8.678;2023-02-18T07:09:47;1.10;;;1.10;;
5412;SDS011;2729;50.056;8.678;2023-02-18T07:12:13;1.53;;;1.40;;
5412;SDS011;2729;50.056;8.678;2023-02-18T07:14:39;2.57;;;1.33;;
5412;SDS011;2729;50.056;8.678;2023-02-18T07:17:05;1.50;;;1.40;;
5412;SDS011;2729;50.056;8.678;2023-02-18T07:19:31;1.37;;;1.27;;
5412;SDS011;2729;50.056;8.678;2023-02-18T07:21:57;1.53;;;1.50;;
5412;SDS011;2729;50.056;8.678;2023-02-18T07:24:23;0.93;;;0.93;;
5412;SDS011;2729;50.056;8.678;2023-02-18T07:26:49;1.40;;;1.30;;
5412;SDS011;2729;50.056;8.678;2023-02-18T07:29:15;1.50;;;1.40;;
5412;SDS011;2729;50.056;8.678;2023-02-18T07:31:41;1.53;;;1.43;;
5412;SDS011;2729;50.056;8.678;2023-02-18T07:34:07;1.20;;;1.20;;
5412;SDS011;2729;50.056;8.678;2023-02-18T07:36:33;1.50;;;1.40;;
5412;SDS011;2729;50.056;8.678;2023-02-18T07:38:59;1.40;;;1.30;;
5412;SDS011;2729;50.056;8.678;2023-02-18T07:41:25;1.30;;;1.30;;
5412;SDS011;2729;50.056;8.678;2023-02-18T07:43:51;1.53;;;1.50;;
5412;SDS011;2729;50.056;8.678;2023-02-18T07:46:17;1.20;;;1.20;;
5412;SDS011;2729;50.056;8.678;2023-02-18T07:48:44;2.20;;;1.60;;
5412;SDS011;2729;50.056;8.678;2023-02-18T07:51:10;1.60;;;1.50;;
5412;SDS011;2729;50.056;8.678;2023-02-18T07:53:37;1.40;;;1.40;;
5412;SDS011;2729;50.056;8.678;2023-02-18T07:56:04;1.63;;;1.53;;
5412;SDS011;2729;50.056;8.678;2023-02-18T07:58:32;1.20;;;1.13;;
5412;SDS011;2729;50.056;8.678;2023-02-18T08:01:05;1.93;;;1.83;;
5412;SDS011;2729;50.056;8.678;2023-02-18T08:03:32;1.50;;;1.50;;
5412;SDS011;2729;50.056;8.678;2023-02-18T08:05:59;3.47;;;2.27;;
5412;SDS011;2729;50.056;8.678;2023-02-18T08:08:27;2.70;;;2.03;;
5412;SDS011;2729;50.056;8.678;2023-02-18T08:10:55;3.90;;;2.17;;
5412;SDS011;2729;50.056;8.678;2023-02-18T08:13:23;2.50;;;2.30;;
5412;SDS011;2729;50.056;8.678;2023-02-18T08:15:49;1.80;;;1.70;;
5412;SDS011;2729;50.056;8.678;2023-02-18T08:18:17;1.70;;;1.60;;
5412;SDS011;2729;50.056;8.678;2023-02-18T08:20:44;1.30;;;1.20;;
5412;SDS011;2729;50.056;8.678;2023-02-18T08:23:12;1.90;;;1.80;;
5412;SDS011;2729;50.056;8.678;2023-02-18T08:25:39;1.90;;;1.80;;
5412;SDS011;2729;50.056;8.678;2023-02-18T08:28:05;1.90;;;1.80;;
5412;SDS011;2729;50.056;8.678;2023-02-18T08:30:31;3.80;;;2.00;;
5412;SDS011;2729;50.056;8.678;2023-02-18T08:32:57;2.00;;;1.90;;
5412;SDS011;2729;50.056;8.678;2023-02-18T08:35:23;1.93;;;1.83;;
5412;SDS011;2729;50.056;8.678;2023-02-18T08:37:49;1.90;;;1.80;;
5412;SDS011;2729;50.056;8.678;2023-02-18T08:40:15;2.50;;;2.27;;
5412;SDS011;2729;50.056;8.678;2023-02-18T08:42:41;2.23;;;2.07;;
5412;SDS011;2729;50.056;8.678;2023-02-18T08:45:07;4.23;;;2.40;;
5412;SDS011;2729;50.056;8.678;2023-02-18T08:47:33;2.13;;;2.03;;
5412;SDS011;2729;50.056;8.678;2023-02-18T08:49:59;1.93;;;1.83;;
5412;SDS011;2729;50.056;8.678;2023-02-18T08:52:26;2.03;;;1.93;;
5412;SDS011;2729;50.056;8.678;2023-02-18T08:54:52;3.40;;;2.10;;
5412;SDS011;2729;50.056;8.678;2023-02-18T08:57:18;2.03;;;1.90;;
5412;SDS011;2729;50.056;8.678;2023-02-18T08:59:44;1.77;;;1.67;;
5412;SDS011;2729;50.056;8.678;2023-02-18T09:02:13;2.53;;;1.93;;
5412;SDS011;2729;50.056;8.678;2023-02-18T09:04:39;2.57;;;1.87;;
5412;SDS011;2729;50.056;8.678;2023-02-18T09:07:05;1.63;;;1.53;;
5412;SDS011;2729;50.056;8.678;2023-02-18T09:09:31;2.40;;;1.50;;
5412;SDS011;2729;50.056;8.678;2023-02-18T09:11:57;1.70;;;1.60;;
5412;SDS011;2729;50.056;8.678;2023-02-18T09:14:23;2.63;;;1.70;;
5412;SDS011;2729;50.056;8.678;2023-02-18T09:16:49;1.83;;;1.73;;
5412;SDS011;2729;50.056;8.678;2023-02-18T09:19:16;1.60;;;1.50;;
5412;SDS011;2729;50.056;8.678;2023-02-18T09:21:42;1.80;;;1.70;;
5412;SDS011;2729;50.056;8.678;2023-02-18T09:24:08;1.63;;;1.63;;
5412;SDS011;2729;50.056;8.678;2023-02-18T09:26:34;1.40;;;1.30;;
5412;SDS011;2729;50.056;8.678;2023-02-18T09:29:00;3.20;;;1.50;;
5412;SDS011;2729;50.056;8.678;2023-02-18T09:31:27;2.67;;;2.00;;
5412;SDS011;2729;50.056;8.678;2023-02-18T09:33:54;2.57;;;1.63;;
5412;SDS011;2729;50.056;8.678;2023-02-18T09:36:24;1.80;;;1.70;;
5412;SDS011;2729;50.056;8.678;2023-02-18T09:38:51;1.63;;;1.53;;
5412;SDS011;2729;50.056;8.678;2023-02-18T09:41:21;1.40;;;1.30;;
5412;SDS011;2729;50.056;8.678;2023-02-18T09:43:55;1.77;;;1.63;;
5412;SDS011;2729;50.056;8.678;2023-02-18T09:49:17;1.10;;;1.10;;
5412;SDS011;2729;50.056;8.678;2023-02-18T09:51:47;3.53;;;1.20;;
5412;SDS011;2729;50.056;8.678;2023-02-18T09:54:14;2.23;;;1.27;;
5412;SDS011;2729;50.056;8.678;2023-02-18T09:56:42;0.90;;;0.90;;
5412;SDS011;2729;50.056;8.678;2023-02-18T09:59:11;0.70;;;0.70;;
5412;SDS011;2729;50.056;8.678;2023-02-18T10:01:40;1.00;;;1.00;;
5412;SDS011;2729;50.056;8.678;2023-02-18T10:06:44;0.70;;;0.70;;
5412;SDS011;2729;50.056;8.678;2023-02-18T10:09:20;0.80;;;0.80;;
5412;SDS011;2729;50.056;8.678;2023-02-18T10:11:54;0.73;;;0.60;;
5412;SDS011;2729;50.056;8.678;2023-02-18T10:14:22;0.70;;;0.70;;
5412;SDS011;2729;50.056;8.678;2023-02-18T10:16:50;2.30;;;0.80;;
5412;SDS011;2729;50.056;8.678;2023-02-18T10:21:49;1.63;;;0.60;;
5412;SDS011;2729;50.056;8.678;2023-02-18T10:24:25;0.83;;;0.70;;
5412;SDS011;2729;50.056;8.678;2023-02-18T10:26:57;0.70;;;0.70;;
5412;SDS011;2729;50.056;8.678;2023-02-18T10:29:24;0.80;;;0.80;;
5412;SDS011;2729;50.056;8.678;2023-02-18T10:34:53;0.80;;;0.80;;
5412;SDS011;2729;50.056;8.678;2023-02-18T10:37:39;0.70;;;0.70;;
5412;SDS011;2729;50.056;8.678;2023-02-18T10:40:30;0.70;;;0.70;;
5412;SDS011;2729;50.056;8.678;2023-02-18T10:43:14;4.10;;;0.83;;
5412;SDS011;2729;50.056;8.678;2023-02-18T10:46:06;0.60;;;0.60;;
5412;SDS011;2729;50.056;8.678;2023-02-18T10:51:52;0.60;;;0.60;;
5412;SDS011;2729;50.056;8.678;2023-02-18T10:54:24;2.00;;;1.13;;
5412;SDS011;2729;50.056;8.678;2023-02-18T10:56:51;0.80;;;0.80;;
5412;SDS011;2729;50.056;8.678;2023-02-18T10:59:24;0.50;;;0.50;;
5412;SDS011;2729;50.056;8.678;2023-02-18T11:01:56;0.80;;;0.80;;
5412;SDS011;2729;50.056;8.678;2023-02-18T11:04:26;0.77;;;0.60;;
5412;SDS011;2729;50.056;8.678;2023-02-18T11:07:01;1.63;;;0.70;;
5412;SDS011;2729;50.056;8.678;2023-02-18T11:09:40;2.20;;;0.60;;
5412;SDS011;2729;50.056;8.678;2023-02-18T11:12:13;0.53;;;0.53;;
5412;SDS011;2729;50.056;8.678;2023-02-18T11:17:38;0.67;;;0.67;;
5412;SDS011;2729;50.056;8.678;2023-02-18T11:20:53;1.13;;;0.60;;
5412;SDS011;2729;50.056;8.678;2023-02-18T11:25:31;3.30;;;0.70;;
5412;SDS011;2729;50.056;8.678;2023-02-18T11:28:01;0.70;;;0.70;;
5412;SDS011;2729;50.056;8.678;2023-02-18T11:30:34;0.60;;;0.60;;
5412;SDS011;2729;50.056;8.678;2023-02-18T11:33:13;0.70;;;0.70;;
5412;SDS011;2729;50.056;8.678;2023-02-18T11:35:50;0.77;;;0.77;;
5412;SDS011;2729;50.056;8.678;2023-02-18T11:38:22;0.50;;;0.50;;
5412;SDS011;2729;50.056;8.678;2023-02-18T11:40:54;0.83;;;0.83;;
5412;SDS011;2729;50.056;8.678;2023-02-18T11:43:23;0.90;;;0.70;;
5412;SDS011;2729;50.056;8.678;2023-02-18T11:48:38;1.00;;;0.90;;
5412;SDS011;2729;50.056;8.678;2023-02-18T11:51:04;2.03;;;0.87;;
5412;SDS011;2729;50.056;8.678;2023-02-18T11:53:31;0.60;;;0.60;;
5412;SDS011;2729;50.056;8.678;2023-02-18T11:56:00;0.60;;;0.60;;
5412;SDS011;2729;50.056;8.678;2023-02-18T11:58:44;1.23;;;0.80;;
5412;SDS011;2729;50.056;8.678;2023-02-18T12:01:29;0.73;;;0.73;;
5412;SDS011;2729;50.056;8.678;2023-02-18T12:04:20;1.03;;;0.90;;
5412;SDS011;2729;50.056;8.678;2023-02-18T12:07:15;1.00;;;0.70;;
5412;SDS011;2729;50.056;8.678;2023-02-18T12:09:46;0.80;;;0.77;;
5412;SDS011;2729;50.056;8.678;2023-02-18T12:12:19;1.47;;;0.97;;
5412;SDS011;2729;50.056;8.678;2023-02-18T12:14:53;0.90;;;0.90;;
5412;SDS011;2729;50.056;8.678;2023-02-18T12:17:23;0.80;;;0.80;;
5412;SDS011;2729;50.056;8.678;2023-02-18T12:22:54;1.03;;;1.00;;
5412;SDS011;2729;50.056;8.678;2023-02-18T12:31:01;1.60;;;0.90;;
5412;SDS011;2729;50.056;8.678;2023-02-18T12:33:42;2.03;;;0.73;;
5412;SDS011;2729;50.056;8.678;2023-02-18T12:36:28;1.57;;;1.07;;
5412;SDS011;2729;50.056;8.678;2023-02-18T12:42:05;0.90;;;0.90;;
5412;SDS011;2729;50.056;8.678;2023-02-18T12:44:59;2.57;;;0.90;;
5412;SDS011;2729;50.056;8.678;2023-02-18T12:50:42;0.93;;;0.80;;
5412;SDS011;2729;50.056;8.678;2023-02-18T12:56:45;0.70;;;0.70;;
5412;SDS011;2729;50.056;8.678;2023-02-18T13:02:22;0.90;;;0.83;;
5412;SDS011;2729;50.056;8.678;2023-02-18T13:05:17;0.90;;;0.90;;
5412;SDS011;2729;50.056;8.678;2023-02-18T13:10:51;1.73;;;0.90;;
5412;SDS011;2729;50.056;8.678;2023-02-18T13:13:29;4.77;;;1.30;;
5412;SDS011;2729;50.056;8.678;2023-02-18T13:16:08;1.60;;;1.10;;
5412;SDS011;2729;50.056;8.678;2023-02-18T13:18:38;2.20;;;1.23;;
5412;SDS011;2729;50.056;8.678;2023-02-18T13:21:14;0.90;;;0.90;;
5412;SDS011;2729;50.056;8.678;2023-02-18T13:26:28;0.87;;;0.87;;
5412;SDS011;2729;50.056;8.678;2023-02-18T13:31:59;2.37;;;1.97;;
5412;SDS011;2729;50.056;8.678;2023-02-18T13:35:03;1.70;;;1.13;;
5412;SDS011;2729;50.056;8.678;2023-02-18T13:40:52;2.80;;;1.20;;
5412;SDS011;2729;50.056;8.678;2023-02-18T13:43:28;13.60;;;1.50;;
5412;SDS011;2729;50.056;8.678;2023-02-18T13:46:04;1.30;;;1.13;;
5412;SDS011;2729;50.056;8.678;2023-02-18T13:48:39;3.90;;;1.40;;
5412;SDS011;2729;50.056;8.678;2023-02-18T13:51:13;1.00;;;1.00;;
5412;SDS011;2729;50.056;8.678;2023-02-18T13:53:42;1.90;;;1.43;;
5412;SDS011;2729;50.056;8.678;2023-02-18T13:56:22;1.30;;;1.30;;
5412;SDS011;2729;50.056;8.678;2023-02-18T13:58:54;1.90;;;1.03;;
5412;SDS011;2729;50.056;8.678;2023-02-18T14:01:34;3.27;;;1.20;;
5412;SDS011;2729;50.056;8.678;2023-02-18T14:04:02;2.00;;;1.37;;
5412;SDS011;2729;50.056;8.678;2023-02-18T14:06:32;2.77;;;1.07;;
5412;SDS011;2729;50.056;8.678;2023-02-18T14:11:45;1.57;;;1.47;;
5412;SDS011;2729;50.056;8.678;2023-02-18T14:19:54;1.30;;;1.20;;
5412;SDS011;2729;50.056;8.678;2023-02-18T14:22:43;1.30;;;1.20;;
5412;SDS011;2729;50.056;8.678;2023-02-18T14:27:37;1.53;;;1.43;;
5412;SDS011;2729;50.056;8.678;2023-02-18T14:30:04;1.30;;;1.17;;
5412;SDS011;2729;50.056;8.678;2023-02-18T14:32:32;1.77;;;1.20;;
5412;SDS011;2729;50.056;8.678;2023-02-18T14:35:20;3.17;;;1.23;;
5412;SDS011;2729;50.056;8.678;2023-02-18T14:38:03;3.03;;;1.40;;
5412;SDS011;2729;50.056;8.678;2023-02-18T14:41:01;5.10;;;1.73;;
5412;SDS011;2729;50.056;8.678;2023-02-18T14:43:38;1.30;;;1.27;;
5412;SDS011;2729;50.056;8.678;2023-02-18T14:51:46;1.30;;;1.20;;
5412;SDS011;2729;50.056;8.678;2023-02-18T14:54:14;1.43;;;1.03;;
5412;SDS011;2729;50.056;8.678;2023-02-18T14:56:52;4.13;;;1.23;;
5412;SDS011;2729;50.056;8.678;2023-02-18T14:59:22;4.10;;;1.30;;
5412;SDS011;2729;50.056;8.678;2023-02-18T15:01:53;1.03;;;1.03;;
5412;SDS011;2729;50.056;8.678;2023-02-18T15:04:21;1.70;;;1.10;;
5412;SDS011;2729;50.056;8.678;2023-02-18T15:06:56;0.90;;;0.90;;
5412;SDS011;2729;50.056;8.678;2023-02-18T15:09:27;2.13;;;1.10;;
5412;SDS011;2729;50.056;8.678;2023-02-18T15:11:57;1.10;;;0.90;;
5412;SDS011;2729;50.056;8.678;2023-02-18T15:14:36;1.00;;;1.00;;
5412;SDS011;2729;50.056;8.678;2023-02-18T15:17:05;3.30;;;1.50;;
5412;SDS011;2729;50.056;8.678;2023-02-18T15:19:37;2.00;;;1.60;;
5412;SDS011;2729;50.056;8.678;2023-02-18T15:22:12;1.10;;;1.00;;
5412;SDS011;2729;50.056;8.678;2023-02-18T15:24:40;4.20;;;2.67;;
5412;SDS011;2729;50.056;8.678;2023-02-18T15:27:13;1.90;;;1.23;;
5412;SDS011;2729;50.056;8.678;2023-02-18T15:29:41;0.90;;;0.90;;
5412;SDS011;2729;50.056;8.678;2023-02-18T15:32:21;1.03;;;1.03;;
5412;SDS011;2729;50.056;8.678;2023-02-18T15:34:56;0.83;;;0.83;;
5412;SDS011;2729;50.056;8.678;2023-02-18T15:37:27;0.80;;;0.80;;
5412;SDS011;2729;50.056;8.678;2023-02-18T15:39:54;0.90;;;0.90;;
5412;SDS011;2729;50.056;8.678;2023-02-18T15:42:29;1.63;;;1.53;;
5412;SDS011;2729;50.056;8.678;2023-02-18T15:45:08;1.10;;;1.00;;
5412;SDS011;2729;50.056;8.678;2023-02-18T15:47:46;1.20;;;1.20;;
5412;SDS011;2729;50.056;8.678;2023-02-18T15:52:56;0.97;;;0.97;;
5412;SDS011;2729;50.056;8.678;2023-02-18T15:58:05;0.90;;;0.87;;
5412;SDS011;2729;50.056;8.678;2023-02-18T16:00:41;1.00;;;0.90;;
5412;SDS011;2729;50.056;8.678;2023-02-18T16:05:47;0.90;;;0.90;;
5412;SDS011;2729;50.056;8.678;2023-02-18T16:08:25;1.13;;;0.90;;
5412;SDS011;2729;50.056;8.678;2023-02-18T16:10:53;0.93;;;0.90;;
5412;SDS011;2729;50.056;8.678;2023-02-18T16:13:30;1.20;;;1.20;;
5412;SDS011;2729;50.056;8.678;2023-02-18T16:15:56;0.90;;;0.90;;
5412;SDS011;2729;50.056;8.678;2023-02-18T16:18:27;1.37;;;1.07;;
5412;SDS011;2729;50.056;8.678;2023-02-18T16:21:00;1.90;;;1.00;;
5412;SDS011;2729;50.056;8.678;2023-02-18T16:23:31;1.20;;;1.00;;
5412;SDS011;2729;50.056;8.678;2023-02-18T16:28:59;1.50;;;1.40;;
5412;SDS011;2729;50.056;8.678;2023-02-18T16:31:29;0.70;;;0.70;;
5412;SDS011;2729;50.056;8.678;2023-02-18T16:33:55;1.23;;;0.73;;
5412;SDS011;2729;50.056;8.678;2023-02-18T16:36:22;0.77;;;0.77;;
5412;SDS011;2729;50.056;8.678;2023-02-18T16:38:49;0.80;;;0.80;;
5412;SDS011;2729;50.056;8.678;2023-02-18T16:41:15;0.80;;;0.80;;
5412;SDS011;2729;50.056;8.678;2023-02-18T16:43:41;0.70;;;0.70;;
5412;SDS011;2729;50.056;8.678;2023-02-18T16:46:08;0.80;;;0.80;;
5412;SDS011;2729;50.056;8.678;2023-02-18T16:48:39;1.40;;;1.00;;
5412;SDS011;2729;50.056;8.678;2023-02-18T16:51:12;2.40;;;1.13;;
5412;SDS011;2729;50.056;8.678;2023-02-18T16:53:55;1.27;;;1.20;;
5412;SDS011;2729;50.056;8.678;2023-02-18T16:56:22;1.00;;;1.00;;
5412;SDS011;2729;50.056;8.678;2023-02-18T16:58:51;1.73;;;0.83;;
5412;SDS011;2729;50.056;8.678;2023-02-18T17:01:21;1.10;;;1.10;;
5412;SDS011;2729;50.056;8.678;2023-02-18T17:03:50;1.20;;;1.20;;
5412;SDS011;2729;50.056;8.678;2023-02-18T17:06:17;0.70;;;0.70;;
5412;SDS011;2729;50.056;8.678;2023-02-18T17:08:43;1.70;;;1.00;;
5412;SDS011;2729;50.056;8.678;2023-02-18T17:11:19;0.90;;;0.90;;
5412;SDS011;2729;50.056;8.678;2023-02-18T17:13:48;0.80;;;0.80;;
5412;SDS011;2729;50.056;8.678;2023-02-18T17:16:15;0.83;;;0.83;;
5412;SDS011;2729;50.056;8.678;2023-02-18T17:18:41;1.00;;;1.00;;
5412;SDS011;2729;50.056;8.678;2023-02-18T17:21:10;0.90;;;0.90;;
5412;SDS011;2729;50.056;8.678;2023-02-18T17:23:47;1.37;;;0.90;;
5412;SDS011;2729;50.056;8.678;2023-02-18T17:28:44;1.13;;;1.10;;
5412;SDS011;2729;50.056;8.678;2023-02-18T17:31:11;1.43;;;0.97;;